sensor_id;sensor_type;location;lat;lon;timestamp;pressure;altitude;pressure_sealevel;temperature;humidity
61337;BME280;47212;41.326;2.104;2023-07-31T00:00:05;101625.56;;;26.83;67.46
61337;BME280;47212;41.326;2.104;2023-07-31T00:05:08;101609.16;;;26.82;67.69
61337;BME280;47212;41.326;2.104;2023-07-31T00:10:11;101621.50;;;26.81;67.41
61337;BME280;47212;41.326;2.104;2023-07-31T00:15:14;101619.88;;;26.80;67.46
61337;BME280;47212;41.326;2.104;2023-07-31T00:20:17;101613.38;;;26.76;67.49
61337;BME280;47212;41.326;2.104;2023-07-31T00:25:19;101614.53;;;26.75;67.31
61337;BME280;47212;41.326;2.104;2023-07-31T00:30:22;101608.84;;;26.71;67.11
61337;BME280;47212;41.326;2.104;2023-07-31T00:35:24;101613.16;;;26.69;67.18
61337;BME280;47212;41.326;2.104;2023-07-31T00:40:26;101595.47;;;26.64;67.11
61337;BME280;47212;41.326;2.104;2023-07-31T00:45:29;101595.69;;;26.59;66.78
61337;BME280;47212;41.326;2.104;2023-07-31T00:50:32;101586.41;;;26.55;67.40
61337;BME280;47212;41.326;2.104;2023-07-31T00:55:35;101577.56;;;26.53;67.32
61337;BME280;47212;41.326;2.104;2023-07-31T01:00:37;101578.25;;;26.50;67.22
61337;BME280;47212;41.326;2.104;2023-07-31T01:11:13;101564.78;;;26.40;67.68
61337;BME280;47212;41.326;2.104;2023-07-31T01:21:21;101561.06;;;26.36;67.53
61337;BME280;47212;41.326;2.104;2023-07-31T01:26:28;101562.88;;;26.32;67.70
61337;BME280;47212;41.326;2.104;2023-07-31T01:31:36;101556.84;;;26.30;67.83
61337;BME280;47212;41.326;2.104;2023-07-31T01:36:41;101554.75;;;26.27;67.87
61337;BME280;47212;41.326;2.104;2023-07-31T01:41:45;101553.13;;;26.26;67.82
61337;BME280;47212;41.326;2.104;2023-07-31T01:46:48;101556.63;;;26.23;68.05
61337;BME280;47212;41.326;2.104;2023-07-31T01:51:51;101562.88;;;26.20;68.34
61337;BME280;47212;41.326;2.104;2023-07-31T01:56:57;101552.44;;;26.17;68.22
61337;BME280;47212;41.326;2.104;2023-07-31T02:02:03;101554.28;;;26.13;68.35
61337;BME280;47212;41.326;2.104;2023-07-31T02:07:06;101540.91;;;26.06;68.45
61337;BME280;47212;41.326;2.104;2023-07-31T02:12:10;101547.53;;;26.01;68.67
61337;BME280;47212;41.326;2.104;2023-07-31T02:17:17;101539.38;;;25.96;68.71
61337;BME280;47212;41.326;2.104;2023-07-31T02:22:20;101527.75;;;25.94;68.74
61337;BME280;47212;41.326;2.104;2023-07-31T02:27:25;101538.44;;;25.92;68.84
61337;BME280;47212;41.326;2.104;2023-07-31T02:32:30;101528.44;;;25.91;68.92
61337;BME280;47212;41.326;2.104;2023-07-31T02:37:38;101535.19;;;25.90;68.75
61337;BME280;47212;41.326;2.104;2023-07-31T02:42:44;101538.44;;;25.92;68.75
61337;BME280;47212;41.326;2.104;2023-07-31T02:47:47;101538.44;;;25.92;68.91
61337;BME280;47212;41.326;2.104;2023-07-31T02:52:51;101536.47;;;25.93;68.72
61337;BME280;47212;41.326;2.104;2023-07-31T02:57:54;101532.84;;;25.92;68.89
61337;BME280;47212;41.326;2.104;2023-07-31T03:02:57;101534.00;;;25.91;68.93
61337;BME280;47212;41.326;2.104;2023-07-31T03:07:59;101530.41;;;25.91;69.02
61337;BME280;47212;41.326;2.104;2023-07-31T03:13:03;101527.97;;;25.89;68.89
61337;BME280;47212;41.326;2.104;2023-07-31T03:18:05;101517.97;;;25.88;68.85
61337;BME280;47212;41.326;2.104;2023-07-31T03:23:07;101531.09;;;25.88;68.10
61337;BME280;47212;41.326;2.104;2023-07-31T03:28:10;101532.28;;;25.87;67.90
61337;BME280;47212;41.326;2.104;2023-07-31T03:33:12;101534.59;;;25.85;67.72
61337;BME280;47212;41.326;2.104;2023-07-31T03:38:16;101515.75;;;25.82;67.19
61337;BME280;47212;41.326;2.104;2023-07-31T03:43:19;101514.47;;;25.79;67.20
61337;BME280;47212;41.326;2.104;2023-07-31T03:48:21;101519.25;;;25.79;67.37
61337;BME280;47212;41.326;2.104;2023-07-31T03:53:24;101516.81;;;25.77;67.24
61337;BME280;47212;41.326;2.104;2023-07-31T03:58:26;101511.22;;;25.77;67.19
61337;BME280;47212;41.326;2.104;2023-07-31T04:09:29;101512.03;;;25.78;67.24
61337;BME280;47212;41.326;2.104;2023-07-31T04:14:34;101504.13;;;25.80;67.42
61337;BME280;47212;41.326;2.104;2023-07-31T04:19:39;101514.47;;;25.79;67.14
61337;BME280;47212;41.326;2.104;2023-07-31T04:24:59;101502.97;;;25.81;66.92
61337;BME280;47212;41.326;2.104;2023-07-31T04:30:03;101504.25;;;25.83;66.83
61337;BME280;47212;41.326;2.104;2023-07-31T04:35:15;101521.00;;;25.83;66.42
61337;BME280;47212;41.326;2.104;2023-07-31T04:40:21;101519.50;;;25.86;66.79
61337;BME280;47212;41.326;2.104;2023-07-31T04:45:29;101528.19;;;25.84;66.65
61337;BME280;47212;41.326;2.104;2023-07-31T04:50:38;101532.16;;;25.83;67.08
61337;BME280;47212;41.326;2.104;2023-07-31T04:55:47;101536.09;;;25.82;66.98
61337;BME280;47212;41.326;2.104;2023-07-31T05:01:08;101533.66;;;25.81;66.58
61337;BME280;47212;41.326;2.104;2023-07-31T05:06:21;101534.00;;;25.79;66.84
61337;BME280;47212;41.326;2.104;2023-07-31T05:11:29;101532.84;;;25.80;66.60
61337;BME280;47212;41.326;2.104;2023-07-31T05:16:41;101540.50;;;25.83;66.60
61337;BME280;47212;41.326;2.104;2023-07-31T05:21:50;101530.28;;;25.87;66.07
61337;BME280;47212;41.326;2.104;2023-07-31T05:26:54;101529.25;;;25.92;66.23
61337;BME280;47212;41.326;2.104;2023-07-31T05:32:27;101516.84;;;26.01;65.58
61337;BME280;47212;41.326;2.104;2023-07-31T05:37:31;101523.13;;;26.11;65.57
61337;BME280;47212;41.326;2.104;2023-07-31T05:42:38;101522.19;;;26.19;65.17
61337;BME280;47212;41.326;2.104;2023-07-31T05:47:45;101521.97;;;26.24;65.20
61337;BME280;47212;41.326;2.104;2023-07-31T05:52:50;101516.16;;;26.29;65.26
61337;BME280;47212;41.326;2.104;2023-07-31T05:57:53;101525.13;;;26.34;65.23
61337;BME280;47212;41.326;2.104;2023-07-31T06:02:57;101518.03;;;26.37;65.33
61337;BME280;47212;41.326;2.104;2023-07-31T06:08:06;101522.09;;;26.40;65.10
61337;BME280;47212;41.326;2.104;2023-07-31T06:13:15;101528.59;;;26.44;65.06
61337;BME280;47212;41.326;2.104;2023-07-31T06:18:25;101523.13;;;26.47;64.89
61337;BME280;47212;41.326;2.104;2023-07-31T06:23:33;101520.78;;;26.49;64.52
61337;BME280;47212;41.326;2.104;2023-07-31T06:28:41;101532.06;;;26.53;64.64
61337;BME280;47212;41.326;2.104;2023-07-31T06:34:18;101530.31;;;26.60;63.26
61337;BME280;47212;41.326;2.104;2023-07-31T06:39:28;101537.38;;;26.70;63.49
61337;BME280;47212;41.326;2.104;2023-07-31T06:44:35;101539.94;;;26.75;63.48
61337;BME280;47212;41.326;2.104;2023-07-31T06:49:37;101544.00;;;26.78;63.20
61337;BME280;47212;41.326;2.104;2023-07-31T06:54:42;101544.94;;;26.82;63.10
61337;BME280;47212;41.326;2.104;2023-07-31T06:59:53;101538.63;;;26.85;63.79
61337;BME280;47212;41.326;2.104;2023-07-31T07:05:19;101533.19;;;26.88;63.54
61337;BME280;47212;41.326;2.104;2023-07-31T07:10:26;101545.28;;;26.92;63.71
61337;BME280;47212;41.326;2.104;2023-07-31T07:15:36;101538.88;;;26.92;63.84
61337;BME280;47212;41.326;2.104;2023-07-31T07:20:49;101547.00;;;26.97;63.83
61337;BME280;47212;41.326;2.104;2023-07-31T07:26:13;101555.53;;;27.01;64.25
61337;BME280;47212;41.326;2.104;2023-07-31T07:31:35;101552.03;;;27.04;63.67
61337;BME280;47212;41.326;2.104;2023-07-31T07:36:53;101553.75;;;27.08;63.89
61337;BME280;47212;41.326;2.104;2023-07-31T07:42:03;101558.63;;;27.11;63.66
61337;BME280;47212;41.326;2.104;2023-07-31T07:47:15;101565.13;;;27.15;63.85
61337;BME280;47212;41.326;2.104;2023-07-31T07:52:21;101565.22;;;27.19;64.05
61337;BME280;47212;41.326;2.104;2023-07-31T07:57:33;101563.00;;;27.24;64.21
61337;BME280;47212;41.326;2.104;2023-07-31T08:02:40;101556.69;;;27.27;64.35
61337;BME280;47212;41.326;2.104;2023-07-31T08:07:44;101567.63;;;27.33;64.47
61337;BME280;47212;41.326;2.104;2023-07-31T08:12:54;101562.50;;;27.35;64.61
61337;BME280;47212;41.326;2.104;2023-07-31T08:17:58;101564.56;;;27.38;64.42
61337;BME280;47212;41.326;2.104;2023-07-31T08:23:04;101569.00;;;27.39;64.99
61337;BME280;47212;41.326;2.104;2023-07-31T08:28:10;101561.78;;;27.38;66.09
61337;BME280;47212;41.326;2.104;2023-07-31T08:33:14;101567.63;;;27.33;66.61
61337;BME280;47212;41.326;2.104;2023-07-31T08:38:20;101564.63;;;27.25;69.37
61337;BME280;47212;41.326;2.104;2023-07-31T08:43:36;101565.13;;;27.15;72.98
61337;BME280;47212;41.326;2.104;2023-07-31T08:48:44;101560.75;;;27.02;73.15
61337;BME280;47212;41.326;2.104;2023-07-31T08:53:49;101557.50;;;26.88;75.17
61337;BME280;47212;41.326;2.104;2023-07-31T08:58:54;101560.31;;;26.76;74.71
61337;BME280;47212;41.326;2.104;2023-07-31T09:04:03;101555.41;;;26.73;75.82
61337;BME280;47212;41.326;2.104;2023-07-31T09:09:09;101561.38;;;26.71;76.71
61337;BME280;47212;41.326;2.104;2023-07-31T09:14:28;101561.72;;;26.70;78.59
61337;BME280;47212;41.326;2.104;2023-07-31T09:19:36;101565.09;;;26.63;77.65
61337;BME280;47212;41.326;2.104;2023-07-31T09:24:42;101562.09;;;26.56;78.11
61337;BME280;47212;41.326;2.104;2023-07-31T09:29:59;101553.59;;;26.52;78.81
61337;BME280;47212;41.326;2.104;2023-07-31T09:35:27;101558.94;;;26.57;80.03
61337;BME280;47212;41.326;2.104;2023-07-31T09:40:37;101558.00;;;26.65;79.82
61337;BME280;47212;41.326;2.104;2023-07-31T09:45:46;101542.38;;;26.77;79.54
61337;BME280;47212;41.326;2.104;2023-07-31T09:50:53;101546.31;;;27.00;78.57
61337;BME280;47212;41.326;2.104;2023-07-31T09:56:09;101544.91;;;27.06;78.50
61337;BME280;47212;41.326;2.104;2023-07-31T10:01:16;101536.97;;;27.08;76.41
61337;BME280;47212;41.326;2.104;2023-07-31T10:06:24;101537.09;;;27.12;76.76
61337;BME280;47212;41.326;2.104;2023-07-31T10:11:46;101530.16;;;27.21;77.97
61337;BME280;47212;41.326;2.104;2023-07-31T10:17:01;101518.34;;;27.56;79.42
61337;BME280;47212;41.326;2.104;2023-07-31T10:22:12;101517.78;;;27.78;76.42
61337;BME280;47212;41.326;2.104;2023-07-31T10:27:21;101517.03;;;28.13;74.95
61337;BME280;47212;41.326;2.104;2023-07-31T10:32:28;101514.97;;;28.26;74.51
61337;BME280;47212;41.326;2.104;2023-07-31T10:37:42;101520.66;;;28.29;74.56
61337;BME280;47212;41.326;2.104;2023-07-31T10:42:47;101524.06;;;28.38;73.84
61337;BME280;47212;41.326;2.104;2023-07-31T10:48:22;101512.41;;;28.36;73.64
61337;BME280;47212;41.326;2.104;2023-07-31T10:53:32;101514.03;;;28.37;73.71
61337;BME280;47212;41.326;2.104;2023-07-31T10:58:37;101512.75;;;28.50;73.22
61337;BME280;47212;41.326;2.104;2023-07-31T11:03:50;101510.66;;;28.63;72.06
61337;BME280;47212;41.326;2.104;2023-07-31T11:09:06;101498.19;;;28.80;71.20
61337;BME280;47212;41.326;2.104;2023-07-31T11:14:10;101493.72;;;28.60;71.14
61337;BME280;47212;41.326;2.104;2023-07-31T11:19:44;101487.00;;;28.45;71.11
61337;BME280;47212;41.326;2.104;2023-07-31T11:24:49;101483.84;;;28.46;71.67
61337;BME280;47212;41.326;2.104;2023-07-31T11:30:02;101492.75;;;28.68;70.52
61337;BME280;47212;41.326;2.104;2023-07-31T11:35:15;101481.16;;;28.69;70.79
61337;BME280;47212;41.326;2.104;2023-07-31T11:40:21;101473.28;;;28.75;69.83
61337;BME280;47212;41.326;2.104;2023-07-31T11:45:29;101465.63;;;28.72;69.51
61337;BME280;47212;41.326;2.104;2023-07-31T11:50:39;101462.81;;;28.72;69.75
61337;BME280;47212;41.326;2.104;2023-07-31T11:55:44;101469.16;;;28.69;69.77
61337;BME280;47212;41.326;2.104;2023-07-31T12:00:58;101445.78;;;28.61;70.38
61337;BME280;47212;41.326;2.104;2023-07-31T12:06:07;101446.47;;;28.58;70.39
61337;BME280;47212;41.326;2.104;2023-07-31T12:11:14;101443.25;;;28.56;70.61
61337;BME280;47212;41.326;2.104;2023-07-31T12:16:19;101447.72;;;28.41;70.31
61337;BME280;47212;41.326;2.104;2023-07-31T12:21:28;101419.00;;;28.44;71.14
61337;BME280;47212;41.326;2.104;2023-07-31T12:26:42;101413.69;;;28.59;71.27
61337;BME280;47212;41.326;2.104;2023-07-31T12:31:56;101409.84;;;28.47;70.28
61337;BME280;47212;41.326;2.104;2023-07-31T12:37:05;101400.56;;;28.43;71.22
61337;BME280;47212;41.326;2.104;2023-07-31T12:42:17;101390.84;;;28.37;71.24
61337;BME280;47212;41.326;2.104;2023-07-31T12:47:21;101388.03;;;28.37;71.02
61337;BME280;47212;41.326;2.104;2023-07-31T12:52:28;101395.56;;;28.33;70.86
61337;BME280;47212;41.326;2.104;2023-07-31T12:57:32;101392.75;;;28.33;70.61
61337;BME280;47212;41.326;2.104;2023-07-31T13:02:38;101397.47;;;28.29;70.55
61337;BME280;47212;41.326;2.104;2023-07-31T13:07:52;101376.25;;;28.28;69.99
61337;BME280;47212;41.326;2.104;2023-07-31T13:12:56;101376.34;;;28.16;70.98
61337;BME280;47212;41.326;2.104;2023-07-31T13:18:05;101366.78;;;28.17;71.05
61337;BME280;47212;41.326;2.104;2023-07-31T13:23:13;101358.63;;;28.28;70.65
61337;BME280;47212;41.326;2.104;2023-07-31T13:28:19;101363.88;;;28.29;70.64
61337;BME280;47212;41.326;2.104;2023-07-31T13:33:24;101344.81;;;28.19;71.03
61337;BME280;47212;41.326;2.104;2023-07-31T13:38:42;101360.25;;;28.29;70.70
61337;BME280;47212;41.326;2.104;2023-07-31T13:44:02;101339.56;;;28.33;71.79
61337;BME280;47212;41.326;2.104;2023-07-31T13:49:07;101363.94;;;28.52;70.78
61337;BME280;47212;41.326;2.104;2023-07-31T13:54:18;101339.25;;;28.58;70.10
61337;BME280;47212;41.326;2.104;2023-07-31T13:59:41;101353.53;;;28.52;70.42
61337;BME280;47212;41.326;2.104;2023-07-31T14:04:47;101326.28;;;28.49;70.40
61337;BME280;47212;41.326;2.104;2023-07-31T14:09:57;101334.16;;;28.44;71.26
61337;BME280;47212;41.326;2.104;2023-07-31T14:15:03;101324.81;;;28.36;70.77
61337;BME280;47212;41.326;2.104;2023-07-31T14:20:10;101327.31;;;28.41;71.36
61337;BME280;47212;41.326;2.104;2023-07-31T14:25:20;101317.38;;;28.44;71.61
61337;BME280;47212;41.326;2.104;2023-07-31T14:30:26;101327.03;;;28.46;71.56
61337;BME280;47212;41.326;2.104;2023-07-31T14:35:36;101308.47;;;28.38;71.19
61337;BME280;47212;41.326;2.104;2023-07-31T14:40:42;101299.19;;;28.34;72.06
61337;BME280;47212;41.326;2.104;2023-07-31T14:45:51;101305.00;;;28.45;71.61
61337;BME280;47212;41.326;2.104;2023-07-31T14:51:00;101303.38;;;28.44;71.96
61337;BME280;47212;41.326;2.104;2023-07-31T14:56:13;101294.22;;;28.47;71.87
61337;BME280;47212;41.326;2.104;2023-07-31T15:01:18;101292.75;;;28.53;72.10
61337;BME280;47212;41.326;2.104;2023-07-31T15:06:26;101290.31;;;28.51;71.92
61337;BME280;47212;41.326;2.104;2023-07-31T15:11:31;101278.22;;;28.47;72.44
61337;BME280;47212;41.326;2.104;2023-07-31T15:16:39;101276.63;;;28.46;72.91
61337;BME280;47212;41.326;2.104;2023-07-31T15:21:42;101277.06;;;28.48;72.82
61337;BME280;47212;41.326;2.104;2023-07-31T15:26:51;101272.03;;;28.58;72.40
61337;BME280;47212;41.326;2.104;2023-07-31T15:31:58;101255.38;;;28.65;72.49
61337;BME280;47212;41.326;2.104;2023-07-31T15:37:13;101248.28;;;28.71;70.99
61337;BME280;47212;41.326;2.104;2023-07-31T15:42:19;101257.19;;;28.76;71.42
61337;BME280;47212;41.326;2.104;2023-07-31T15:47:23;101254.00;;;28.78;71.44
61337;BME280;47212;41.326;2.104;2023-07-31T15:52:29;101241.13;;;28.73;71.92
61337;BME280;47212;41.326;2.104;2023-07-31T15:57:38;101235.63;;;28.80;71.07
61337;BME280;47212;41.326;2.104;2023-07-31T16:02:46;101237.47;;;28.92;70.62
61337;BME280;47212;41.326;2.104;2023-07-31T16:07:51;101237.34;;;28.85;70.32
61337;BME280;47212;41.326;2.104;2023-07-31T16:12:58;101231.00;;;28.88;70.86
61337;BME280;47212;41.326;2.104;2023-07-31T16:18:05;101220.66;;;28.92;70.41
61337;BME280;47212;41.326;2.104;2023-07-31T16:23:19;101223.44;;;28.92;70.58
61337;BME280;47212;41.326;2.104;2023-07-31T16:28:29;101219.34;;;28.86;70.96
61337;BME280;47212;41.326;2.104;2023-07-31T16:33:35;101206.97;;;28.87;71.04
61337;BME280;47212;41.326;2.104;2023-07-31T16:38:43;101216.47;;;28.82;72.01
61337;BME280;47212;41.326;2.104;2023-07-31T16:43:49;101216.59;;;28.67;72.37
61337;BME280;47212;41.326;2.104;2023-07-31T16:48:53;101202.59;;;28.67;73.29
61337;BME280;47212;41.326;2.104;2023-07-31T16:54:02;101188.16;;;28.65;73.86
61337;BME280;47212;41.326;2.104;2023-07-31T16:59:12;101185.78;;;28.67;74.25
61337;BME280;47212;41.326;2.104;2023-07-31T17:04:18;101183.09;;;28.74;74.17
61337;BME280;47212;41.326;2.104;2023-07-31T17:09:27;101180.28;;;28.74;74.90
61337;BME280;47212;41.326;2.104;2023-07-31T17:14:37;101184.00;;;28.59;75.72
61337;BME280;47212;41.326;2.104;2023-07-31T17:19:40;101175.44;;;28.48;76.86
61337;BME280;47212;41.326;2.104;2023-07-31T17:24:48;101180.22;;;28.25;77.79
61337;BME280;47212;41.326;2.104;2023-07-31T17:30:01;101180.72;;;28.11;79.25
61337;BME280;47212;41.326;2.104;2023-07-31T17:35:11;101179.84;;;28.07;82.10
61337;BME280;47212;41.326;2.104;2023-07-31T17:40:17;101175.13;;;28.11;80.24
61337;BME280;47212;41.326;2.104;2023-07-31T17:45:24;101180.88;;;28.18;80.86
61337;BME280;47212;41.326;2.104;2023-07-31T17:50:38;101174.53;;;28.21;81.08
61337;BME280;47212;41.326;2.104;2023-07-31T17:55:54;101179.84;;;28.26;80.50
61337;BME280;47212;41.326;2.104;2023-07-31T18:01:04;101181.91;;;28.29;80.63
61337;BME280;47212;41.326;2.104;2023-07-31T18:06:09;101186.63;;;28.25;80.75
61337;BME280;47212;41.326;2.104;2023-07-31T18:11:14;101179.25;;;28.17;81.13
61337;BME280;47212;41.326;2.104;2023-07-31T18:16:24;101187.94;;;28.12;81.33
61337;BME280;47212;41.326;2.104;2023-07-31T18:21:35;101191.19;;;28.14;80.89
61337;BME280;47212;41.326;2.104;2023-07-31T18:26:41;101193.16;;;28.13;81.32
61337;BME280;47212;41.326;2.104;2023-07-31T18:31:45;101199.94;;;28.12;81.59
61337;BME280;47212;41.326;2.104;2023-07-31T18:36:53;101195.97;;;28.13;82.06
61337;BME280;47212;41.326;2.104;2023-07-31T18:42:03;101194.03;;;28.17;82.05
61337;BME280;47212;41.326;2.104;2023-07-31T18:47:09;101194.84;;;28.18;82.39
61337;BME280;47212;41.326;2.104;2023-07-31T18:52:15;101195.66;;;28.18;81.66
61337;BME280;47212;41.326;2.104;2023-07-31T18:57:27;101193.69;;;28.19;81.89
61337;BME280;47212;41.326;2.104;2023-07-31T19:02:31;101184.03;;;28.16;80.77
61337;BME280;47212;41.326;2.104;2023-07-31T19:07:37;101172.78;;;28.13;80.19
61337;BME280;47212;41.326;2.104;2023-07-31T19:12:49;101169.91;;;28.09;80.72
61337;BME280;47212;41.326;2.104;2023-07-31T19:18:00;101178.75;;;28.11;81.23
61337;BME280;47212;41.326;2.104;2023-07-31T19:23:06;101187.94;;;28.12;81.14
61337;BME280;47212;41.326;2.104;2023-07-31T19:28:12;101197.53;;;28.11;80.82
61337;BME280;47212;41.326;2.104;2023-07-31T19:33:19;101213.94;;;28.12;79.34
61337;BME280;47212;41.326;2.104;2023-07-31T19:38:27;101225.50;;;28.11;78.77
61337;BME280;47212;41.326;2.104;2023-07-31T19:43:33;101216.59;;;28.05;79.34
61337;BME280;47212;41.326;2.104;2023-07-31T19:48:38;101238.19;;;28.05;79.21
61337;BME280;47212;41.326;2.104;2023-07-31T19:53:44;101243.78;;;28.05;79.71
61337;BME280;47212;41.326;2.104;2023-07-31T19:58:53;101248.06;;;27.99;80.06
61337;BME280;47212;41.326;2.104;2023-07-31T20:04:12;101245.09;;;27.91;80.86
61337;BME280;47212;41.326;2.104;2023-07-31T20:09:16;101250.63;;;27.88;81.13
61337;BME280;47212;41.326;2.104;2023-07-31T20:14:24;101254.09;;;27.81;81.59
61337;BME280;47212;41.326;2.104;2023-07-31T20:19:36;101263.22;;;27.78;81.96
61337;BME280;47212;41.326;2.104;2023-07-31T20:24:42;101266.28;;;27.73;82.29
61337;BME280;47212;41.326;2.104;2023-07-31T20:30:02;101260.97;;;27.68;82.43
61337;BME280;47212;41.326;2.104;2023-07-31T20:35:13;101270.53;;;27.67;82.72
61337;BME280;47212;41.326;2.104;2023-07-31T20:40:21;101270.16;;;27.69;83.05
61337;BME280;47212;41.326;2.104;2023-07-31T20:45:28;101271.78;;;27.70;83.29
61337;BME280;47212;41.326;2.104;2023-07-31T20:50:36;101268.19;;;27.69;82.96
61337;BME280;47212;41.326;2.104;2023-07-31T20:56:03;101267.72;;;27.67;83.91
61337;BME280;47212;41.326;2.104;2023-07-31T21:01:12;101271.34;;;27.68;83.43
61337;BME280;47212;41.326;2.104;2023-07-31T21:06:20;101265.22;;;27.62;83.55
61337;BME280;47212;41.326;2.104;2023-07-31T21:11:27;101272.44;;;27.63;83.89
61337;BME280;47212;41.326;2.104;2023-07-31T21:16:32;101269.53;;;27.59;83.76
61337;BME280;47212;41.326;2.104;2023-07-31T21:21:47;101265.47;;;27.57;84.18
61337;BME280;47212;41.326;2.104;2023-07-31T21:26:52;101264.31;;;27.58;84.12
61337;BME280;47212;41.326;2.104;2023-07-31T21:31:59;101257.53;;;27.59;84.02
61337;BME280;47212;41.326;2.104;2023-07-31T21:37:07;101241.94;;;27.58;84.18
61337;BME280;47212;41.326;2.104;2023-07-31T21:42:17;101246.00;;;27.60;84.10
61337;BME280;47212;41.326;2.104;2023-07-31T21:47:30;101244.03;;;27.61;84.27
61337;BME280;47212;41.326;2.104;2023-07-31T21:52:35;101233.09;;;27.56;84.45
61337;BME280;47212;41.326;2.104;2023-07-31T21:57:44;101224.25;;;27.54;84.16
61337;BME280;47212;41.326;2.104;2023-07-31T22:02:48;101228.25;;;27.53;83.94
61337;BME280;47212;41.326;2.104;2023-07-31T22:07:59;101228.69;;;27.55;83.35
61337;BME280;47212;41.326;2.104;2023-07-31T22:13:06;101236.34;;;27.58;83.28
61337;BME280;47212;41.326;2.104;2023-07-31T22:18:13;101233.19;;;27.59;82.99
61337;BME280;47212;41.326;2.104;2023-07-31T22:23:22;101237.25;;;27.62;83.06
61337;BME280;47212;41.326;2.104;2023-07-31T22:28:26;101225.34;;;27.65;82.93
61337;BME280;47212;41.326;2.104;2023-07-31T22:33:30;101225.34;;;27.65;82.86
61337;BME280;47212;41.326;2.104;2023-07-31T22:38:47;101222.19;;;27.67;82.61
61337;BME280;47212;41.326;2.104;2023-07-31T22:43:54;101220.56;;;27.66;82.94
61337;BME280;47212;41.326;2.104;2023-07-31T22:49:05;101224.53;;;27.65;83.19
61337;BME280;47212;41.326;2.104;2023-07-31T22:54:10;101215.31;;;27.64;83.24
61337;BME280;47212;41.326;2.104;2023-07-31T22:59:21;101218.56;;;27.66;83.53
61337;BME280;47212;41.326;2.104;2023-07-31T23:04:28;101222.97;;;27.67;84.01
61337;BME280;47212;41.326;2.104;2023-07-31T23:09:50;101225.41;;;27.69;83.89
61337;BME280;47212;41.326;2.104;2023-07-31T23:15:10;101209.44;;;27.69;84.13
61337;BME280;47212;41.326;2.104;2023-07-31T23:20:26;101220.19;;;27.67;83.89
61337;BME280;47212;41.326;2.104;2023-07-31T23:25:36;101218.19;;;27.68;83.90
61337;BME280;47212;41.326;2.104;2023-07-31T23:30:42;101206.22;;;27.67;84.31
61337;BME280;47212;41.326;2.104;2023-07-31T23:35:52;101204.50;;;27.63;84.87
61337;BME280;47212;41.326;2.104;2023-07-31T23:40:55;101211.63;;;27.60;84.48
61337;BME280;47212;41.326;2.104;2023-07-31T23:46:14;101204.41;;;27.59;84.64
61337;BME280;47212;41.326;2.104;2023-07-31T23:51:21;101191.59;;;27.58;84.76
61337;BME280;47212;41.326;2.104;2023-07-31T23:56:28;101190.72;;;27.54;84.65
